createdAt,value
2024-02-16T00:00:20.398Z,3.90
2024-02-16T00:03:05.521Z,5.00
2024-02-16T00:05:52.548Z,5.40
2024-02-16T00:08:39.949Z,4.57
2024-02-16T00:11:26.402Z,5.60
2024-02-16T00:14:12.057Z,4.50
2024-02-16T00:16:57.392Z,4.43
2024-02-16T00:19:42.561Z,4.18
2024-02-16T00:22:27.412Z,5.40
2024-02-16T00:25:13.778Z,6.50
2024-02-16T00:28:00.360Z,6.33
2024-02-16T00:30:45.358Z,2.80
2024-02-16T00:33:30.782Z,4.72
2024-02-16T00:36:15.930Z,6.13
2024-02-16T00:39:01.211Z,6.53
2024-02-16T00:41:47.486Z,3.50
2024-02-16T00:44:32.559Z,4.95
2024-02-16T00:47:18.197Z,3.58
2024-02-16T00:50:06.318Z,5.68
2024-02-16T00:52:51.317Z,3.45
2024-02-16T00:55:36.395Z,6.90
2024-02-16T00:58:22.388Z,4.75
2024-02-16T01:01:11.510Z,4.90
2024-02-16T01:03:56.993Z,2.95
2024-02-16T01:06:42.263Z,4.18
2024-02-16T01:09:27.929Z,4.00
2024-02-16T01:12:13.043Z,8.30
2024-02-16T01:14:58.037Z,3.42
2024-02-16T01:17:43.536Z,4.05
2024-02-16T01:20:31.970Z,3.75
2024-02-16T01:23:17.007Z,4.83
2024-02-16T01:26:01.818Z,4.05
2024-02-16T01:28:47.105Z,5.07
2024-02-16T01:31:32.168Z,5.43
2024-02-16T01:34:17.648Z,4.25
2024-02-16T01:37:02.781Z,4.50
2024-02-16T01:39:47.970Z,4.03
2024-02-16T01:42:33.189Z,6.38
2024-02-16T01:45:18.550Z,3.88
2024-02-16T01:48:04.362Z,6.50
2024-02-16T01:50:50.476Z,4.00
2024-02-16T01:53:37.877Z,3.80
2024-02-16T01:56:23.728Z,3.25
2024-02-16T01:59:09.219Z,4.28
2024-02-16T02:01:54.082Z,4.72
2024-02-16T02:04:39.523Z,4.60
2024-02-16T02:07:27.884Z,4.93
2024-02-16T02:10:13.954Z,3.75
2024-02-16T02:12:58.925Z,3.38
2024-02-16T02:15:43.884Z,4.32
2024-02-16T02:18:29.163Z,3.87
2024-02-16T02:21:15.498Z,5.03
2024-02-16T02:24:00.474Z,3.95
2024-02-16T02:26:45.433Z,4.30
2024-02-16T02:29:30.928Z,5.47
2024-02-16T02:32:16.372Z,4.40
2024-02-16T02:35:02.971Z,3.95
2024-02-16T02:37:47.878Z,4.00
2024-02-16T02:40:33.004Z,6.90
2024-02-16T02:43:19.767Z,5.88
2024-02-16T02:46:04.908Z,3.60
2024-02-16T02:48:52.669Z,3.35
2024-02-16T02:51:38.230Z,4.05
2024-02-16T02:54:23.219Z,3.15
2024-02-16T02:57:08.507Z,4.95
2024-02-16T02:59:53.507Z,4.93
2024-02-16T03:02:39.656Z,3.78
2024-02-16T03:05:24.655Z,2.92
2024-02-16T03:08:11.891Z,6.15
2024-02-16T03:10:57.123Z,3.67
2024-02-16T03:13:42.227Z,5.90
2024-02-16T03:16:27.218Z,3.85
2024-02-16T03:19:12.469Z,4.80
2024-02-16T03:21:57.369Z,5.00
2024-02-16T03:24:42.297Z,6.78
2024-02-16T03:27:27.563Z,2.73
2024-02-16T03:30:12.594Z,6.20
2024-02-16T03:32:57.905Z,3.20
2024-02-16T03:35:42.918Z,3.70
2024-02-16T03:38:27.961Z,3.85
2024-02-16T03:41:24.108Z,6.03
2024-02-16T03:44:09.301Z,5.30
2024-02-16T03:46:56.742Z,5.03
2024-02-16T03:49:44.845Z,5.47
2024-02-16T03:52:30.157Z,3.88
2024-02-16T03:55:15.260Z,3.47
2024-02-16T03:58:00.309Z,4.80
2024-02-16T04:00:45.540Z,5.88
2024-02-16T04:03:30.618Z,5.53
2024-02-16T04:06:15.556Z,4.35
2024-02-16T04:09:00.723Z,2.90
2024-02-16T04:11:47.475Z,6.25
2024-02-16T04:14:33.579Z,3.28
2024-02-16T04:17:18.708Z,3.63
2024-02-16T04:20:04.191Z,4.40
2024-02-16T04:22:48.942Z,3.53
2024-02-16T04:25:33.897Z,4.15
2024-02-16T04:28:19.396Z,3.53
2024-02-16T04:31:04.882Z,3.78
2024-02-16T04:33:50.133Z,5.15
2024-02-16T04:36:35.812Z,3.67
2024-02-16T04:39:21.173Z,2.97
2024-02-16T04:42:06.307Z,2.92
2024-02-16T04:44:51.585Z,4.72
2024-02-16T04:47:36.819Z,4.13
2024-02-16T04:50:21.965Z,3.50
2024-02-16T04:53:06.996Z,4.60
2024-02-16T04:55:51.871Z,4.53
2024-02-16T04:58:41.458Z,3.70
2024-02-16T05:01:27.179Z,4.80
2024-02-16T05:04:14.505Z,2.87
2024-02-16T05:06:59.696Z,4.38
2024-02-16T05:09:45.490Z,5.53
2024-02-16T05:12:30.640Z,4.50
2024-02-16T05:15:16.582Z,5.18
2024-02-16T05:18:01.693Z,6.30
2024-02-16T05:20:48.088Z,4.00
2024-02-16T05:23:32.936Z,5.22
2024-02-16T05:26:17.879Z,1.83
2024-02-16T05:29:03.114Z,4.45
2024-02-16T05:31:48.668Z,5.97
2024-02-16T05:34:38.669Z,5.38
2024-02-16T05:37:24.138Z,4.22
2024-02-16T05:40:19.875Z,4.80
2024-02-16T05:43:05.684Z,5.47
2024-02-16T05:45:50.964Z,3.00
2024-02-16T05:48:40.396Z,4.00
2024-02-16T05:51:25.727Z,5.30
2024-02-16T05:54:11.908Z,3.85
2024-02-16T05:56:56.873Z,3.20
2024-02-16T05:59:42.954Z,4.83
2024-02-16T06:02:28.242Z,4.15
2024-02-16T06:05:13.498Z,3.88
2024-02-16T06:07:59.853Z,6.10
2024-02-16T06:10:45.459Z,3.15
2024-02-16T06:13:30.607Z,5.43
2024-02-16T06:16:15.613Z,4.55
2024-02-16T06:19:01.263Z,3.03
2024-02-16T06:21:46.244Z,5.53
2024-02-16T06:24:31.282Z,4.35
2024-02-16T06:27:16.933Z,6.30
2024-02-16T06:30:02.935Z,5.47
2024-02-16T06:32:48.530Z,5.05
2024-02-16T06:35:33.976Z,2.25
2024-02-16T06:38:19.292Z,5.60
2024-02-16T06:41:05.217Z,2.87
2024-02-16T06:43:50.419Z,4.82
2024-02-16T06:46:35.538Z,4.22
2024-02-16T06:49:20.904Z,3.17
2024-02-16T06:52:06.589Z,4.75
2024-02-16T06:54:52.788Z,3.03
2024-02-16T06:57:38.122Z,4.82
2024-02-16T07:00:23.921Z,8.82
2024-02-16T07:03:09.536Z,7.90
2024-02-16T07:05:54.697Z,3.88
2024-02-16T07:08:43.955Z,3.30
2024-02-16T07:11:29.545Z,5.28
2024-02-16T07:14:14.786Z,4.75
2024-02-16T07:16:59.675Z,4.60
2024-02-16T07:19:44.991Z,2.65
2024-02-16T07:22:30.273Z,4.80
2024-02-16T07:25:15.522Z,4.18
2024-02-16T07:28:00.587Z,5.00
2024-02-16T07:30:45.642Z,5.20
2024-02-16T07:33:31.133Z,3.33
2024-02-16T07:36:18.920Z,4.60
2024-02-16T07:39:05.746Z,5.22
2024-02-16T07:41:50.955Z,4.45
2024-02-16T07:44:37.210Z,4.38
2024-02-16T07:47:22.250Z,3.80
2024-02-16T07:50:07.466Z,5.37
2024-02-16T07:52:52.703Z,6.03
2024-02-16T07:55:37.984Z,4.50
2024-02-16T07:58:23.421Z,3.60
2024-02-16T08:01:08.437Z,5.22
2024-02-16T08:03:54.168Z,3.73
2024-02-16T08:06:39.780Z,5.45
2024-02-16T08:09:24.779Z,4.72
2024-02-16T08:12:09.764Z,4.30
2024-02-16T08:14:56.679Z,5.90
2024-02-16T08:17:42.545Z,7.90
2024-02-16T08:20:27.471Z,4.13
2024-02-16T08:23:12.616Z,4.30
2024-02-16T08:25:58.250Z,4.47
2024-02-16T08:28:45.694Z,6.35
2024-02-16T08:31:30.700Z,7.07
2024-02-16T08:34:15.914Z,4.47
2024-02-16T08:37:02.744Z,6.18
2024-02-16T08:39:48.325Z,6.93
2024-02-16T08:42:33.548Z,10.65
2024-02-16T08:45:18.778Z,4.73
2024-02-16T08:48:05.393Z,3.72
2024-02-16T08:50:50.920Z,4.57
2024-02-16T08:53:36.182Z,4.97
2024-02-16T08:56:21.541Z,7.40
2024-02-16T08:59:06.971Z,4.77
2024-02-16T09:01:52.155Z,9.20
2024-02-16T09:04:37.682Z,4.22
2024-02-16T09:07:23.808Z,12.68
2024-02-16T09:10:09.540Z,4.00
2024-02-16T09:12:54.423Z,5.23
2024-02-16T09:15:39.611Z,4.72
2024-02-16T09:18:24.822Z,3.45
2024-02-16T09:21:09.783Z,5.75
2024-02-16T09:23:55.014Z,5.70
2024-02-16T09:26:39.909Z,4.37
2024-02-16T09:29:25.164Z,6.72
2024-02-16T09:32:11.150Z,7.07
2024-02-16T09:34:57.259Z,5.80
2024-02-16T09:37:42.195Z,5.38
2024-02-16T09:40:27.447Z,4.57
2024-02-16T09:43:25.195Z,5.22
2024-02-16T09:46:10.935Z,7.30
2024-02-16T09:48:56.518Z,6.45
2024-02-16T09:51:41.850Z,6.75
2024-02-16T09:54:26.903Z,6.90
2024-02-16T09:57:12.142Z,5.55
2024-02-16T09:59:57.332Z,6.95
2024-02-16T10:02:44.191Z,6.32
2024-02-16T10:05:31.728Z,5.47
2024-02-16T10:08:16.812Z,4.10
2024-02-16T10:11:05.616Z,6.97
2024-02-16T10:14:04.885Z,4.22
2024-02-16T10:17:00.324Z,5.63
2024-02-16T10:19:45.477Z,6.07
2024-02-16T10:22:30.446Z,5.27
2024-02-16T10:25:15.745Z,7.45
2024-02-16T10:28:06.889Z,6.13
2024-02-16T10:30:52.437Z,9.25
2024-02-16T10:33:39.268Z,8.15
2024-02-16T10:36:26.079Z,7.90
2024-02-16T10:39:12.550Z,4.90
2024-02-16T10:41:58.540Z,4.63
2024-02-16T10:44:44.677Z,6.97
2024-02-16T10:47:30.147Z,9.55
2024-02-16T10:50:15.418Z,5.90
2024-02-16T10:53:24.526Z,7.07
2024-02-16T10:56:09.719Z,7.75
2024-02-16T10:58:55.222Z,5.43
2024-02-16T11:01:42.113Z,5.70
2024-02-16T11:04:40.349Z,5.97
2024-02-16T11:07:26.073Z,8.43
2024-02-16T11:10:13.962Z,8.07
2024-02-16T11:13:05.603Z,4.70
2024-02-16T11:15:58.603Z,6.55
2024-02-16T11:18:50.506Z,7.93
2024-02-16T11:21:35.729Z,7.50
2024-02-16T11:24:24.690Z,4.38
2024-02-16T11:27:11.392Z,7.05
2024-02-16T11:30:01.114Z,6.10
2024-02-16T11:32:47.282Z,8.03
2024-02-16T11:35:32.622Z,8.07
2024-02-16T11:38:19.621Z,4.60
2024-02-16T11:41:06.564Z,4.40
2024-02-16T11:43:51.771Z,6.60
2024-02-16T11:46:36.878Z,4.17
2024-02-16T11:49:21.924Z,5.22
2024-02-16T11:52:08.454Z,6.88
2024-02-16T11:54:53.327Z,4.97
2024-02-16T11:57:39.173Z,6.15
2024-02-16T12:00:24.414Z,4.87
2024-02-16T12:03:09.557Z,5.85
2024-02-16T12:05:58.905Z,5.13
2024-02-16T12:08:45.601Z,7.95
2024-02-16T12:11:30.918Z,6.57
2024-02-16T12:14:17.704Z,3.67
2024-02-16T12:17:02.789Z,9.52
2024-02-16T12:19:49.075Z,7.10
2024-02-16T12:22:34.415Z,5.07
2024-02-16T12:25:19.347Z,7.45
2024-02-16T12:28:04.960Z,5.07
2024-02-16T12:30:50.286Z,4.88
2024-02-16T12:33:35.751Z,5.72
2024-02-16T12:36:21.505Z,5.28
2024-02-16T12:39:07.222Z,7.97
2024-02-16T12:41:52.301Z,4.37
2024-02-16T12:44:37.242Z,8.10
2024-02-16T12:47:22.585Z,4.50
2024-02-16T12:50:08.083Z,5.93
2024-02-16T12:52:59.560Z,6.22
2024-02-16T12:55:48.937Z,6.07
2024-02-16T12:58:34.324Z,5.28
2024-02-16T13:01:25.892Z,3.90
2024-02-16T13:04:11.938Z,5.28
2024-02-16T13:06:56.888Z,11.00
2024-02-16T13:09:43.286Z,6.77
2024-02-16T13:12:28.517Z,8.73
2024-02-16T13:15:23.061Z,9.40
2024-02-16T13:18:13.470Z,6.82
2024-02-16T13:20:58.500Z,6.85
2024-02-16T13:23:43.418Z,11.03
2024-02-16T13:26:28.388Z,7.00
2024-02-16T13:29:13.519Z,8.73
2024-02-16T13:31:58.435Z,9.90
2024-02-16T13:34:43.911Z,9.25
2024-02-16T13:37:28.972Z,6.73
2024-02-16T13:40:14.278Z,6.97
2024-02-16T13:43:02.822Z,5.93
2024-02-16T13:45:55.067Z,8.30
2024-02-16T13:48:42.394Z,7.00
2024-02-16T13:51:27.873Z,10.33
2024-02-16T13:54:13.138Z,7.55
2024-02-16T13:56:58.309Z,8.10
2024-02-16T13:59:44.125Z,11.43
2024-02-16T14:02:29.290Z,5.30
2024-02-16T14:05:14.769Z,6.93
2024-02-16T14:08:01.055Z,6.60
2024-02-16T14:10:46.828Z,12.63
2024-02-16T14:13:32.044Z,9.38
2024-02-16T14:16:16.941Z,8.43
2024-02-16T14:19:02.208Z,8.80
2024-02-16T14:21:48.349Z,9.88
2024-02-16T14:24:33.497Z,8.77
2024-02-16T14:27:19.192Z,11.48
2024-02-16T14:30:05.208Z,11.18
2024-02-16T14:32:54.023Z,12.33
2024-02-16T14:35:39.878Z,7.82
2024-02-16T14:38:25.071Z,9.20
2024-02-16T14:41:10.615Z,7.60
2024-02-16T14:43:55.605Z,6.88
2024-02-16T14:46:40.585Z,9.17
2024-02-16T14:49:27.658Z,7.63
2024-02-16T14:52:12.964Z,5.85
2024-02-16T14:54:58.279Z,6.25
2024-02-16T14:57:45.128Z,6.07
2024-02-16T15:00:30.450Z,5.83
2024-02-16T15:03:16.474Z,7.57
2024-02-16T15:06:01.799Z,5.18
2024-02-16T15:08:47.038Z,6.93
2024-02-16T15:11:32.243Z,5.68
2024-02-16T15:14:20.224Z,7.40
2024-02-16T15:17:06.980Z,6.55
2024-02-16T15:19:52.718Z,4.45
2024-02-16T15:22:45.215Z,6.28
2024-02-16T15:25:34.075Z,6.20
2024-02-16T15:28:19.256Z,6.13
2024-02-16T15:31:05.298Z,4.20
2024-02-16T15:33:51.427Z,6.03
2024-02-16T15:36:37.404Z,7.10
2024-02-16T15:39:22.692Z,6.22
2024-02-16T15:42:12.911Z,4.37
2024-02-16T15:45:00.055Z,4.15
2024-02-16T15:47:45.095Z,7.80
2024-02-16T15:50:31.250Z,8.05
2024-02-16T15:53:16.576Z,5.65
2024-02-16T15:56:04.176Z,5.03
2024-02-16T15:58:49.384Z,4.80
2024-02-16T16:01:36.279Z,7.00
2024-02-16T16:04:21.417Z,5.55
2024-02-16T16:07:07.080Z,7.10
2024-02-16T16:09:54.622Z,3.70
2024-02-16T16:12:40.402Z,5.07
2024-02-16T16:15:25.787Z,5.03
2024-02-16T16:18:13.656Z,3.58
2024-02-16T16:20:58.925Z,3.78
2024-02-16T16:23:43.933Z,3.57
2024-02-16T16:26:28.774Z,3.92
2024-02-16T16:29:16.135Z,4.38
2024-02-16T16:32:06.278Z,4.35
2024-02-16T16:34:53.450Z,6.00
2024-02-16T16:37:38.367Z,4.30
2024-02-16T16:40:23.409Z,3.90
2024-02-16T16:43:08.346Z,4.45
2024-02-16T16:45:53.765Z,2.88
2024-02-16T16:48:39.305Z,3.15
2024-02-16T16:51:24.658Z,3.07
2024-02-16T16:54:10.249Z,3.70
2024-02-16T16:56:55.197Z,3.65
2024-02-16T16:59:40.333Z,5.45
2024-02-16T17:02:26.314Z,3.65
2024-02-16T17:05:12.268Z,6.80
2024-02-16T17:07:57.599Z,6.80
2024-02-16T17:10:42.531Z,4.60
2024-02-16T17:13:27.486Z,6.38
2024-02-16T17:16:13.074Z,6.65
2024-02-16T17:18:58.112Z,5.13
2024-02-16T17:21:43.784Z,5.47
2024-02-16T17:24:31.536Z,7.50
2024-02-16T17:27:17.714Z,5.03
2024-02-16T17:30:04.337Z,6.35
2024-02-16T17:32:49.904Z,5.47
2024-02-16T17:35:35.719Z,5.03
2024-02-16T17:38:21.706Z,5.72
2024-02-16T17:41:06.691Z,6.70
2024-02-16T17:43:51.876Z,5.68
2024-02-16T17:46:36.938Z,4.80
2024-02-16T17:49:23.495Z,5.43
2024-02-16T17:52:11.372Z,7.53
2024-02-16T17:54:56.682Z,7.25
2024-02-16T17:57:42.186Z,6.82
2024-02-16T18:00:27.751Z,8.03
2024-02-16T18:03:13.008Z,7.03
2024-02-16T18:05:59.428Z,6.60
2024-02-16T18:08:44.254Z,8.55
2024-02-16T18:11:29.473Z,8.45
2024-02-16T18:14:15.539Z,8.47
2024-02-16T18:17:01.091Z,7.80
2024-02-16T18:19:46.444Z,7.00
2024-02-16T18:22:31.520Z,7.18
2024-02-16T18:25:16.834Z,7.30
2024-02-16T18:28:01.818Z,7.03
2024-02-16T18:30:46.943Z,8.32
2024-02-16T18:33:32.136Z,6.80
2024-02-16T18:36:16.953Z,8.68
2024-02-16T18:39:03.089Z,7.88
2024-02-16T18:41:48.627Z,7.83
2024-02-16T18:44:33.755Z,8.32
2024-02-16T18:47:19.400Z,8.98
2024-02-16T18:50:05.964Z,8.07
2024-02-16T18:52:51.318Z,7.80
2024-02-16T18:55:36.420Z,8.70
2024-02-16T18:58:21.754Z,8.63
2024-02-16T19:01:06.778Z,8.38
2024-02-16T19:03:51.912Z,7.93
2024-02-16T19:06:37.443Z,9.20
2024-02-16T19:09:22.724Z,7.73
2024-02-16T19:12:08.462Z,9.38
2024-02-16T19:14:53.873Z,9.20
2024-02-16T19:17:39.333Z,9.80
2024-02-16T19:20:24.448Z,8.73
2024-02-16T19:23:13.420Z,9.90
2024-02-16T19:25:58.447Z,8.25
2024-02-16T19:28:43.658Z,8.10
2024-02-16T19:31:29.320Z,8.35
2024-02-16T19:34:14.455Z,9.70
2024-02-16T19:36:59.499Z,9.43
2024-02-16T19:39:44.906Z,8.15
2024-02-16T19:42:30.305Z,10.43
2024-02-16T19:45:25.262Z,7.63
2024-02-16T19:48:13.770Z,9.35
2024-02-16T19:50:58.802Z,9.23
2024-02-16T19:53:43.826Z,8.25
2024-02-16T19:56:28.753Z,9.30
2024-02-16T19:59:13.992Z,9.02
2024-02-16T20:01:59.167Z,10.15
2024-02-16T20:04:44.453Z,9.50
2024-02-16T20:07:34.511Z,9.50
2024-02-16T20:10:19.423Z,10.07
2024-02-16T20:13:05.081Z,8.32
2024-02-16T20:15:50.227Z,12.57
2024-02-16T20:18:35.641Z,9.20
2024-02-16T20:21:20.863Z,11.50
2024-02-16T20:24:06.448Z,10.23
2024-02-16T20:26:51.588Z,10.73
2024-02-16T20:29:36.996Z,10.25
2024-02-16T20:32:23.332Z,9.13
2024-02-16T20:35:08.538Z,11.32
2024-02-16T20:37:54.216Z,8.88
2024-02-16T20:40:39.450Z,12.45
2024-02-16T20:43:24.875Z,9.95
2024-02-16T20:46:10.170Z,10.63
2024-02-16T20:48:55.520Z,9.38
2024-02-16T20:51:40.445Z,11.13
2024-02-16T20:54:30.768Z,13.13
2024-02-16T20:57:15.986Z,10.75
2024-02-16T21:00:04.239Z,9.67
2024-02-16T21:02:50.409Z,10.85
2024-02-16T21:05:35.941Z,13.13
2024-02-16T21:08:21.211Z,11.60
2024-02-16T21:11:06.083Z,12.27
2024-02-16T21:13:50.984Z,10.97
2024-02-16T21:16:36.325Z,11.55
2024-02-16T21:19:21.659Z,13.63
2024-02-16T21:22:07.347Z,12.85
2024-02-16T21:24:52.430Z,11.23
2024-02-16T21:27:37.661Z,15.90
2024-02-16T21:30:22.548Z,12.98
2024-02-16T21:33:08.351Z,13.40
2024-02-16T21:35:57.027Z,17.45
2024-02-16T21:38:42.289Z,18.40
2024-02-16T21:41:27.322Z,15.30
2024-02-16T21:44:12.373Z,15.35
2024-02-16T21:46:59.644Z,13.55
2024-02-16T21:49:44.735Z,15.15
2024-02-16T21:52:29.632Z,15.50
2024-02-16T21:55:14.774Z,16.40
2024-02-16T21:57:59.804Z,16.50
2024-02-16T22:00:44.818Z,15.43
2024-02-16T22:03:30.321Z,14.60
2024-02-16T22:06:26.281Z,19.23
2024-02-16T22:09:11.205Z,16.07
2024-02-16T22:11:56.175Z,18.60
2024-02-16T22:14:41.540Z,19.13
2024-02-16T22:17:27.332Z,17.00
2024-02-16T22:20:12.817Z,19.52
2024-02-16T22:22:59.926Z,18.50
2024-02-16T22:25:44.987Z,19.35
2024-02-16T22:28:29.983Z,17.10
2024-02-16T22:31:15.111Z,18.52
2024-02-16T22:34:00.376Z,19.70
2024-02-16T22:36:45.823Z,19.33
2024-02-16T22:39:31.092Z,19.58
2024-02-16T22:42:16.457Z,18.00
2024-02-16T22:45:01.775Z,18.98
2024-02-16T22:47:48.365Z,21.33
2024-02-16T22:50:33.559Z,20.70
2024-02-16T22:53:18.547Z,19.98
2024-02-16T22:56:03.967Z,17.33
2024-02-16T22:58:49.013Z,14.82
2024-02-16T23:01:34.177Z,17.88
2024-02-16T23:04:19.179Z,18.97
2024-02-16T23:07:06.099Z,13.88
2024-02-16T23:09:51.405Z,17.00
2024-02-16T23:12:36.549Z,16.33
2024-02-16T23:15:24.335Z,19.45
2024-02-16T23:18:09.477Z,15.83
2024-02-16T23:20:55.062Z,16.67
2024-02-16T23:23:40.020Z,14.30
2024-02-16T23:26:25.099Z,14.88
2024-02-16T23:29:12.159Z,13.35
2024-02-16T23:32:00.614Z,15.10
2024-02-16T23:34:46.070Z,17.38
2024-02-16T23:37:31.191Z,15.32
2024-02-16T23:40:16.452Z,17.00
2024-02-16T23:43:01.780Z,17.05
2024-02-16T23:45:47.809Z,17.93
2024-02-16T23:48:33.120Z,14.30
2024-02-16T23:51:19.512Z,21.27
2024-02-16T23:54:04.631Z,17.38
2024-02-16T23:56:50.332Z,16.05
2024-02-16T23:59:35.306Z,15.60
